createdAt,value
2018-08-24T00:00:38.073Z,25.9
2018-08-24T00:01:27.834Z,25.9
2018-08-24T00:02:18.414Z,25.9
2018-08-24T00:03:06.866Z,25.9
2018-08-24T00:03:58.588Z,25.9
2018-08-24T00:04:48.046Z,25.9
2018-08-24T00:05:38.473Z,25.9
2018-08-24T00:06:28.432Z,25.9
2018-08-24T00:07:18.569Z,25.9
2018-08-24T00:08:08.073Z,25.8
2018-08-24T00:08:58.703Z,25.8
2018-08-24T00:09:48.193Z,25.9
2018-08-24T00:10:38.561Z,25.8
2018-08-24T00:11:28.402Z,25.8
2018-08-24T00:12:18.347Z,25.8
2018-08-24T00:31:19.366Z,25.6
2018-08-24T00:32:09.558Z,25.6
2018-08-24T00:32:58.687Z,25.6
2018-08-24T00:33:49.061Z,25.6
2018-08-24T00:34:39.608Z,25.6
2018-08-24T00:35:29.225Z,25.6
2018-08-24T00:36:19.751Z,25.6
2018-08-24T00:37:09.523Z,25.7
2018-08-24T00:37:59.683Z,25.8
2018-08-24T00:38:49.142Z,25.7
2018-08-24T00:39:39.270Z,25.7
2018-08-24T00:40:29.908Z,25.8
2018-08-24T00:41:19.636Z,25.8
2018-08-24T00:42:09.190Z,25.8
2018-08-24T00:42:58.907Z,25.8
2018-08-24T00:43:50.104Z,25.8
2018-08-24T00:44:39.936Z,25.8
2018-08-24T00:45:29.088Z,25.8
2018-08-24T00:46:20.354Z,25.8
2018-08-24T00:47:09.474Z,25.8
2018-08-24T00:47:59.586Z,25.8
2018-08-24T00:48:50.498Z,25.8
2018-08-24T00:49:39.448Z,25.8
2018-08-24T00:50:30.327Z,25.8
2018-08-24T00:51:21.142Z,25.8
2018-08-24T00:52:10.716Z,25.8
2018-08-24T00:53:00.472Z,25.8
2018-08-24T00:53:50.646Z,25.8
2018-08-24T00:54:40.695Z,25.8
2018-08-24T00:55:30.791Z,25.8
2018-08-24T00:56:20.890Z,25.8
2018-08-24T00:57:11.387Z,25.8
2018-08-24T00:58:00.915Z,25.8
2018-08-24T00:58:51.286Z,25.8
2018-08-24T00:59:40.470Z,25.8
2018-08-24T01:00:31.147Z,25.8
2018-08-24T01:01:21.340Z,25.8
2018-08-24T01:02:10.927Z,25.8
2018-08-24T01:03:00.727Z,25.8
2018-08-24T01:03:51.656Z,25.8
2018-08-24T01:04:41.722Z,25.8
2018-08-24T01:05:31.504Z,25.8
2018-08-24T01:06:22.044Z,25.7
2018-08-24T01:07:12.906Z,25.7
2018-08-24T01:08:01.902Z,25.8
2018-08-24T01:08:52.338Z,25.8
2018-08-24T01:09:40.457Z,25.8
2018-08-24T01:10:30.968Z,25.8
2018-08-24T01:11:21.710Z,25.8
2018-08-24T01:12:12.265Z,25.8
2018-08-24T01:13:01.537Z,25.8
2018-08-24T01:13:51.050Z,25.8
2018-08-24T01:14:42.520Z,25.7
2018-08-24T01:15:32.472Z,25.8
2018-08-24T01:16:21.728Z,25.8
2018-08-24T01:17:12.642Z,25.8
2018-08-24T01:18:03.490Z,25.8
2018-08-24T01:18:52.175Z,25.8
2018-08-24T01:19:42.588Z,25.8
2018-08-24T01:20:32.108Z,25.7
2018-08-24T01:21:22.460Z,25.8
2018-08-24T01:22:13.896Z,25.8
2018-08-24T01:23:02.795Z,25.7
2018-08-24T01:23:52.873Z,25.8
2018-08-24T01:24:42.919Z,25.8
2018-08-24T01:25:32.730Z,25.8
2018-08-24T01:26:23.061Z,25.8
2018-08-24T01:27:13.150Z,25.7
2018-08-24T01:28:01.308Z,25.7
2018-08-24T01:28:53.238Z,25.7
2018-08-24T01:29:43.154Z,25.7
2018-08-24T01:30:48.103Z,25.6
2018-08-24T01:31:23.486Z,25.7
2018-08-24T01:32:14.108Z,25.7
2018-08-24T01:33:03.556Z,25.7
2018-08-24T01:33:53.642Z,25.7
2018-08-24T01:34:43.192Z,25.7
2018-08-24T01:35:34.243Z,25.7
2018-08-24T01:36:24.351Z,25.7
2018-08-24T01:37:13.885Z,25.6
2018-08-24T01:38:04.397Z,25.7
2018-08-24T01:38:54.597Z,25.6
2018-08-24T01:39:43.799Z,25.7
2018-08-24T01:40:34.147Z,25.6
2018-08-24T01:41:24.508Z,25.7
2018-08-24T01:42:29.246Z,25.7
2018-08-24T01:43:04.288Z,25.7
2018-08-24T01:43:54.141Z,25.7
2018-08-24T01:44:43.963Z,25.7
2018-08-24T01:45:34.050Z,25.7
2018-08-24T01:46:24.020Z,25.8
2018-08-24T01:47:14.726Z,25.8
2018-08-24T01:48:04.241Z,25.8
2018-08-24T01:48:53.581Z,25.8
2018-08-24T01:49:44.774Z,25.8
2018-08-24T01:50:34.923Z,25.8
2018-08-24T01:51:25.102Z,25.8
2018-08-24T01:52:16.074Z,25.8
2018-08-24T01:53:05.390Z,25.8
2018-08-24T01:53:55.386Z,25.8
2018-08-24T01:54:44.910Z,25.8
2018-08-24T01:55:34.801Z,25.8
2018-08-24T01:56:24.536Z,25.8
2018-08-24T01:57:15.723Z,25.8
2018-08-24T01:58:05.285Z,25.8
2018-08-24T01:58:55.403Z,25.8
2018-08-24T01:59:45.331Z,25.8
2018-08-24T02:00:35.173Z,25.8
2018-08-24T02:01:26.061Z,25.8
2018-08-24T02:02:15.513Z,25.8
2018-08-24T02:03:05.626Z,25.8
2018-08-24T02:03:56.490Z,25.8
2018-08-24T02:04:46.521Z,25.8
2018-08-24T02:05:35.539Z,25.8
2018-08-24T02:06:26.208Z,25.8
2018-08-24T02:07:16.162Z,25.8
2018-08-24T02:08:06.856Z,25.8
2018-08-24T02:08:56.107Z,25.8
2018-08-24T02:10:01.354Z,25.8
2018-08-24T02:10:36.705Z,25.8
2018-08-24T02:11:26.235Z,25.9
2018-08-24T02:12:17.091Z,25.9
2018-08-24T02:13:20.711Z,25.9
2018-08-24T02:13:57.088Z,25.9
2018-08-24T02:14:46.490Z,25.9
2018-08-24T02:15:36.637Z,25.9
2018-08-24T02:16:26.887Z,25.9
2018-08-24T02:17:16.478Z,25.9
2018-08-24T02:18:05.923Z,25.9
2018-08-24T02:18:57.400Z,25.9
2018-08-24T02:19:47.100Z,25.9
2018-08-24T02:20:36.918Z,25.8
2018-08-24T02:21:26.782Z,25.8
2018-08-24T02:22:17.343Z,25.8
2018-08-24T02:23:07.983Z,25.8
2018-08-24T02:23:57.760Z,25.8
2018-08-24T02:24:47.841Z,25.8
2018-08-24T02:25:37.711Z,25.8
2018-08-24T02:26:42.045Z,25.8
2018-08-24T02:27:17.189Z,25.7
2018-08-24T02:28:08.232Z,25.8
2018-08-24T02:28:57.574Z,25.8
2018-08-24T02:29:47.135Z,25.8
2018-08-24T02:30:38.552Z,25.7
2018-08-24T02:31:28.191Z,25.7
2018-08-24T02:32:17.633Z,25.7
2018-08-24T02:33:07.900Z,25.7
2018-08-24T02:33:58.799Z,25.7
2018-08-24T02:34:48.799Z,25.7
2018-08-24T02:35:39.213Z,25.7
2018-08-24T02:36:27.627Z,25.7
2018-08-24T02:37:32.311Z,25.8
2018-08-24T02:38:23.482Z,25.8
2018-08-24T02:38:58.667Z,25.8
2018-08-24T02:39:48.725Z,25.8
2018-08-24T02:40:39.011Z,25.8
2018-08-24T02:41:28.838Z,25.8
2018-08-24T02:42:19.552Z,25.8
2018-08-24T02:43:09.276Z,25.8
2018-08-24T02:43:59.228Z,25.7
2018-08-24T02:44:49.639Z,25.8
2018-08-24T02:45:39.480Z,25.7
2018-08-24T02:46:29.750Z,25.7
2018-08-24T02:47:19.289Z,25.8
2018-08-24T02:48:09.873Z,25.8
2018-08-24T02:48:59.705Z,25.8
2018-08-24T02:49:49.710Z,25.7
2018-08-24T02:50:39.514Z,25.7
2018-08-24T02:51:29.825Z,25.6
2018-08-24T02:52:19.926Z,25.6
2018-08-24T02:53:09.670Z,25.6
2018-08-24T02:53:59.480Z,25.6
2018-08-24T02:54:50.132Z,25.6
2018-08-24T02:55:40.032Z,25.6
2018-08-24T02:56:29.674Z,25.6
2018-08-24T02:57:19.396Z,25.6
2018-08-24T02:58:10.497Z,25.6
2018-08-24T02:58:59.740Z,25.6
2018-08-24T02:59:49.135Z,25.6
2018-08-24T03:00:54.699Z,25.6
2018-08-24T03:01:30.321Z,25.6
2018-08-24T03:02:21.016Z,25.6
2018-08-24T03:03:09.207Z,25.6
2018-08-24T03:04:00.313Z,25.6
2018-08-24T03:04:50.605Z,25.6
2018-08-24T03:05:44.646Z,25.6
2018-08-24T03:06:30.685Z,25.6
2018-08-24T03:07:21.085Z,25.6
2018-08-24T03:08:12.037Z,25.6
2018-08-24T03:09:00.658Z,25.6
2018-08-24T03:09:52.228Z,25.6
2018-08-24T03:10:40.335Z,25.6
2018-08-24T03:11:31.972Z,25.8
2018-08-24T03:12:21.147Z,25.8
2018-08-24T03:13:11.317Z,25.8
2018-08-24T03:14:01.053Z,25.8
2018-08-24T03:14:51.439Z,25.8
2018-08-24T03:15:41.969Z,25.8
2018-08-24T03:16:33.237Z,25.7
2018-08-24T03:17:21.931Z,25.7
2018-08-24T03:18:10.789Z,25.7
2018-08-24T03:19:01.523Z,25.7
2018-08-24T03:19:51.588Z,25.8
2018-08-24T03:20:41.638Z,25.7
2018-08-24T03:21:31.920Z,25.7
2018-08-24T03:22:22.540Z,25.7
2018-08-24T03:23:11.757Z,25.7
2018-08-24T03:24:02.351Z,25.6
2018-08-24T03:24:51.099Z,25.7
2018-08-24T03:25:42.648Z,25.7
2018-08-24T03:26:31.841Z,25.6
2018-08-24T03:27:22.668Z,25.6
2018-08-24T03:28:12.961Z,25.6
2018-08-24T03:29:02.186Z,25.7
2018-08-24T03:29:53.076Z,25.7
2018-08-24T03:30:42.927Z,25.7
2018-08-24T03:31:33.015Z,25.7
2018-08-24T03:32:23.678Z,25.7
2018-08-24T03:33:12.963Z,25.7
2018-08-24T03:34:02.538Z,25.7
2018-08-24T03:34:53.445Z,25.6
2018-08-24T03:35:43.613Z,25.6
2018-08-24T03:36:33.640Z,25.7
2018-08-24T03:37:22.610Z,25.7
2018-08-24T03:38:12.996Z,25.8
2018-08-24T03:39:02.217Z,25.8
2018-08-24T03:39:54.079Z,25.8
2018-08-24T03:40:43.661Z,25.8
2018-08-24T03:41:34.033Z,25.7
2018-08-24T03:42:24.024Z,25.7
2018-08-24T03:43:14.168Z,25.7
2018-08-24T03:44:04.005Z,25.7
2018-08-24T03:44:53.454Z,25.6
2018-08-24T03:45:43.271Z,25.6
2018-08-24T03:46:33.343Z,25.6
2018-08-24T03:47:23.655Z,25.6
2018-08-24T03:48:13.330Z,25.6
2018-08-24T03:49:03.098Z,25.6
2018-08-24T03:49:54.183Z,25.6
2018-08-24T03:50:59.038Z,25.6
2018-08-24T03:51:34.597Z,25.6
2018-08-24T03:52:39.591Z,25.6
2018-08-24T03:53:14.911Z,25.6
2018-08-24T03:54:04.135Z,25.5
2018-08-24T03:54:53.342Z,25.5
2018-08-24T03:55:45.082Z,25.5
2018-08-24T03:56:35.550Z,25.5
2018-08-24T03:57:25.177Z,25.5
2018-08-24T03:58:14.729Z,25.6
2018-08-24T03:59:05.304Z,25.6
2018-08-24T03:59:55.143Z,25.5
2018-08-24T04:00:44.621Z,25.6
2018-08-24T04:01:35.633Z,25.5
2018-08-24T04:02:24.329Z,25.5
2018-08-24T04:03:15.112Z,25.5
2018-08-24T04:04:05.648Z,25.6
2018-08-24T04:04:54.979Z,25.6
2018-08-24T04:05:45.256Z,25.6
2018-08-24T04:06:35.948Z,25.6
2018-08-24T04:07:25.973Z,25.5
2018-08-24T04:08:15.175Z,25.5
2018-08-24T04:09:05.611Z,25.4
2018-08-24T04:09:55.573Z,25.5
2018-08-24T04:10:46.268Z,25.4
2018-08-24T04:11:36.294Z,25.4
2018-08-24T04:12:25.769Z,25.4
2018-08-24T04:13:16.128Z,25.5
2018-08-24T04:14:06.907Z,25.4
2018-08-24T04:14:56.266Z,25.5
2018-08-24T04:15:46.074Z,25.5
2018-08-24T04:16:35.637Z,25.5
2018-08-24T04:17:26.911Z,25.5
2018-08-24T04:18:15.971Z,25.5
2018-08-24T04:19:06.267Z,25.6
2018-08-24T04:19:56.153Z,25.6
2018-08-24T04:20:46.634Z,25.5
2018-08-24T04:21:36.324Z,25.5
2018-08-24T04:22:26.907Z,25.5
2018-08-24T04:23:16.695Z,25.5
2018-08-24T04:24:05.856Z,25.5
2018-08-24T04:24:57.342Z,25.5
2018-08-24T04:25:47.842Z,25.6
2018-08-24T04:26:36.994Z,25.6
2018-08-24T04:27:27.421Z,25.6
2018-08-24T04:28:17.059Z,25.6
2018-08-24T04:29:07.105Z,25.6
2018-08-24T04:29:57.143Z,25.6
2018-08-24T04:30:47.524Z,25.6
2018-08-24T04:31:37.617Z,25.7
2018-08-24T04:32:28.223Z,25.7
2018-08-24T04:33:17.948Z,25.7
2018-08-24T04:34:07.146Z,25.6
2018-08-24T04:34:59.295Z,25.6
2018-08-24T04:35:47.623Z,25.6
2018-08-24T04:36:37.887Z,25.6
2018-08-24T04:37:27.771Z,25.6
2018-08-24T04:38:18.063Z,25.7
2018-08-24T04:39:07.609Z,25.8
2018-08-24T04:39:57.625Z,25.9
2018-08-24T04:40:47.228Z,25.9
2018-08-24T04:41:38.092Z,25.9
2018-08-24T04:42:28.711Z,25.8
2018-08-24T05:00:29.381Z,25.6
2018-08-24T05:01:20.213Z,25.6
2018-08-24T05:02:10.602Z,25.5
2018-08-24T05:03:00.339Z,25.5
2018-08-24T05:03:50.692Z,25.5
2018-08-24T05:04:40.718Z,25.5
2018-08-24T05:05:31.205Z,25.5
2018-08-24T05:06:20.676Z,25.6
2018-08-24T05:07:10.699Z,25.6
2018-08-24T05:08:00.783Z,25.6
2018-08-24T05:08:50.263Z,25.6
2018-08-24T05:09:41.210Z,25.6
2018-08-24T05:10:31.245Z,25.7
2018-08-24T05:11:20.703Z,25.7
2018-08-24T05:12:09.928Z,25.6
2018-08-24T05:13:01.135Z,25.6
2018-08-24T05:13:51.719Z,25.6
2018-08-24T05:14:41.272Z,25.6
2018-08-24T05:15:32.240Z,25.7
2018-08-24T05:16:21.678Z,25.7
2018-08-24T05:17:11.493Z,25.6
2018-08-24T05:18:00.084Z,25.6
2018-08-24T05:18:51.258Z,25.6
2018-08-24T05:19:41.886Z,25.7
2018-08-24T05:20:32.709Z,25.8
2018-08-24T05:21:22.020Z,25.7
2018-08-24T05:22:10.673Z,25.7
2018-08-24T05:23:01.611Z,25.7
2018-08-24T05:23:52.017Z,25.7
2018-08-24T05:24:42.032Z,25.8
2018-08-24T05:25:31.843Z,25.8
2018-08-24T05:26:21.577Z,25.8
2018-08-24T05:27:11.897Z,25.9
2018-08-24T05:28:02.195Z,25.9
2018-08-24T05:28:52.079Z,25.8
2018-08-24T05:29:42.334Z,25.8
2018-08-24T05:30:32.382Z,25.8
2018-08-24T05:31:22.482Z,25.8
2018-08-24T05:32:12.612Z,25.8
2018-08-24T05:33:02.301Z,25.7
2018-08-24T05:33:51.815Z,25.8
2018-08-24T05:34:42.512Z,25.8
2018-08-24T05:35:33.228Z,25.8
2018-08-24T05:36:22.928Z,25.8
2018-08-24T05:37:12.124Z,25.8
2018-08-24T05:38:02.531Z,25.8
2018-08-24T05:38:52.258Z,25.8
2018-08-24T05:39:42.225Z,25.8
2018-08-24T05:40:32.859Z,25.8
2018-08-24T05:41:24.570Z,25.8
2018-08-24T05:42:13.071Z,25.7
2018-08-24T05:43:03.700Z,25.8
2018-08-24T05:43:53.706Z,25.8
2018-08-24T05:44:43.864Z,25.8
2018-08-24T05:45:33.808Z,25.8
2018-08-24T05:46:23.148Z,25.8
2018-08-24T05:47:13.510Z,25.8
2018-08-24T05:48:03.503Z,25.8
2018-08-24T05:48:55.033Z,25.8
2018-08-24T05:49:44.243Z,25.8
2018-08-24T05:50:33.906Z,25.8
2018-08-24T05:51:23.824Z,25.8
2018-08-24T05:52:14.388Z,25.9
2018-08-24T05:53:03.294Z,25.9
2018-08-24T05:53:53.914Z,25.9
2018-08-24T05:54:44.831Z,25.9
2018-08-24T05:55:34.502Z,25.9
2018-08-24T05:56:25.259Z,25.9
2018-08-24T05:57:15.309Z,25.9
2018-08-24T05:58:03.686Z,25.9
2018-08-24T05:58:54.946Z,25.9
2018-08-24T05:59:43.225Z,25.9
2018-08-24T06:00:35.605Z,25.9
2018-08-24T06:01:24.192Z,25.9
2018-08-24T06:02:15.162Z,25.9
2018-08-24T06:03:05.272Z,25.9
2018-08-24T06:03:55.231Z,25.9
2018-08-24T06:04:45.642Z,25.9
2018-08-24T06:05:35.094Z,25.9
2018-08-24T06:06:25.461Z,25.9
2018-08-24T06:07:16.054Z,25.9
2018-08-24T06:08:05.295Z,25.9
2018-08-24T06:08:55.368Z,25.9
2018-08-24T06:09:45.470Z,25.9
2018-08-24T06:10:35.542Z,25.9
2018-08-24T06:11:25.797Z,25.9
2018-08-24T06:12:15.893Z,25.9
2018-08-24T06:13:05.948Z,25.9
2018-08-24T06:13:55.746Z,25.9
2018-08-24T06:14:46.476Z,25.9
2018-08-24T06:15:35.613Z,25.9
2018-08-24T06:16:25.953Z,25.9
2018-08-24T06:17:16.302Z,25.9
2018-08-24T06:18:06.122Z,25.9
2018-08-24T06:18:56.476Z,25.9
2018-08-24T06:19:45.949Z,25.9
2018-08-24T06:20:36.363Z,25.9
2018-08-24T06:21:26.117Z,25.9
2018-08-24T06:22:16.145Z,25.9
2018-08-24T06:23:07.073Z,25.9
2018-08-24T06:23:55.148Z,25.9
2018-08-24T06:24:45.947Z,25.9
2018-08-24T06:25:36.395Z,25.9
2018-08-24T06:26:27.015Z,25.9
2018-08-24T06:27:16.573Z,26
2018-08-24T06:28:05.390Z,25.9
2018-08-24T06:28:56.090Z,25.9
2018-08-24T06:29:47.039Z,26
2018-08-24T06:30:37.056Z,26
2018-08-24T06:31:26.809Z,26
2018-08-24T06:32:17.682Z,26
2018-08-24T06:33:08.387Z,26
2018-08-24T06:33:57.655Z,26
2018-08-24T06:34:47.977Z,26
2018-08-24T06:35:36.551Z,26
2018-08-24T06:36:27.785Z,26
2018-08-24T06:37:17.565Z,26.1
2018-08-24T06:38:08.154Z,26
2018-08-24T06:38:58.247Z,26.1
2018-08-24T06:39:47.417Z,26.1
2018-08-24T06:40:38.143Z,26.1
2018-08-24T06:41:27.835Z,26
2018-08-24T06:42:17.917Z,26.1
2018-08-24T06:43:08.596Z,26.1
2018-08-24T06:43:57.617Z,26.1
2018-08-24T06:44:48.381Z,26.1
2018-08-24T06:45:38.207Z,26.1
2018-08-24T06:46:28.001Z,26.1
2018-08-24T06:47:19.735Z,26.1
2018-08-24T06:48:07.552Z,26.1
2018-08-24T06:48:57.064Z,26.1
2018-08-24T06:49:49.106Z,26.1
2018-08-24T06:50:37.972Z,26.1
2018-08-24T06:51:28.592Z,26.1
2018-08-24T06:52:18.714Z,26.1
2018-08-24T06:53:10.215Z,26.1
2018-08-24T06:54:00.982Z,26.2
2018-08-24T06:54:48.024Z,26.2
2018-08-24T06:55:38.966Z,26.2
2018-08-24T06:56:29.138Z,26.3
2018-08-24T06:57:19.384Z,26.3
2018-08-24T06:58:09.242Z,26.3
2018-08-24T06:59:00.012Z,26.3
2018-08-24T06:59:50.970Z,26.4
2018-08-24T07:00:38.209Z,26.4
2018-08-24T07:01:29.726Z,26.4
2018-08-24T07:02:19.500Z,26.5
2018-08-24T07:03:10.153Z,26.6
2018-08-24T07:04:00.146Z,26.6
2018-08-24T07:04:49.668Z,26.5
2018-08-24T07:05:40.577Z,26.5
2018-08-24T07:06:29.848Z,26.4
2018-08-24T07:07:19.318Z,26.4
2018-08-24T07:08:09.766Z,26.5
2018-08-24T07:09:00.801Z,26.4
2018-08-24T07:09:49.786Z,26.4
2018-08-24T07:10:40.201Z,26.4
2018-08-24T07:11:31.046Z,26.4
2018-08-24T07:12:20.869Z,26.4
2018-08-24T07:13:11.785Z,26.4
2018-08-24T07:14:00.395Z,26.4
2018-08-24T07:14:51.240Z,26.5
2018-08-24T07:15:39.973Z,26.6
2018-08-24T07:16:30.583Z,26.6
2018-08-24T07:17:21.242Z,26.6
2018-08-24T07:18:10.989Z,26.6
2018-08-24T07:19:00.833Z,26.6
2018-08-24T07:19:50.812Z,26.5
2018-08-24T07:20:40.887Z,26.5
2018-08-24T07:21:29.881Z,26.6
2018-08-24T07:22:20.156Z,26.6
2018-08-24T07:23:10.357Z,26.6
2018-08-24T07:24:02.172Z,26.6
2018-08-24T07:24:51.455Z,26.6
2018-08-24T07:25:40.961Z,26.7
2018-08-24T07:26:31.057Z,26.8
2018-08-24T07:27:21.073Z,26.8
2018-08-24T07:28:12.000Z,26.7
2018-08-24T07:29:02.299Z,26.7
2018-08-24T07:29:51.622Z,26.7
2018-08-24T07:30:41.901Z,26.7
2018-08-24T07:31:32.017Z,26.8
2018-08-24T07:32:21.804Z,26.8
2018-08-24T07:33:11.630Z,26.8
2018-08-24T07:34:01.568Z,26.8
2018-08-24T07:34:52.488Z,26.7
2018-08-24T07:35:42.075Z,26.7
2018-08-24T07:36:31.558Z,26.8
2018-08-24T07:37:22.237Z,26.8
2018-08-24T07:38:11.701Z,26.8
2018-08-24T07:39:02.598Z,26.8
2018-08-24T07:39:53.157Z,26.8
2018-08-24T07:40:43.015Z,26.8
2018-08-24T07:41:33.492Z,26.7
2018-08-24T07:42:22.015Z,26.8
2018-08-24T07:43:12.628Z,26.8
2018-08-24T07:44:02.418Z,26.7
2018-08-24T07:44:52.746Z,26.7
2018-08-24T07:45:42.908Z,26.6
2018-08-24T07:46:32.405Z,26.6
2018-08-24T07:47:22.127Z,26.6
2018-08-24T07:48:12.792Z,26.7
2018-08-24T07:49:03.737Z,26.8
2018-08-24T07:49:53.346Z,26.8
2018-08-24T07:50:43.896Z,26.9
2018-08-24T07:51:33.255Z,26.9
2018-08-24T07:52:23.609Z,26.9
2018-08-24T07:53:13.417Z,26.9
2018-08-24T07:54:04.046Z,26.9
2018-08-24T07:54:53.730Z,26.9
2018-08-24T07:55:43.941Z,27
2018-08-24T07:56:33.937Z,27
2018-08-24T07:57:23.796Z,27
2018-08-24T07:58:14.031Z,26.9
2018-08-24T07:59:04.172Z,26.9
2018-08-24T07:59:54.980Z,26.9
2018-08-24T08:00:43.307Z,26.9
2018-08-24T08:01:34.636Z,26.9
2018-08-24T08:02:24.678Z,26.9
2018-08-24T08:03:14.177Z,26.9
2018-08-24T08:04:04.777Z,26.9
2018-08-24T08:04:55.121Z,26.9
2018-08-24T08:05:44.848Z,26.9
2018-08-24T08:06:34.782Z,26.9
2018-08-24T08:07:24.497Z,26.8
2018-08-24T08:08:14.285Z,26.8
2018-08-24T08:09:03.809Z,26.8
2018-08-24T08:09:55.562Z,26.9
2018-08-24T08:10:44.219Z,26.9
2018-08-24T08:11:34.543Z,26.9
2018-08-24T08:12:24.785Z,26.9
2018-08-24T08:13:15.215Z,27
2018-08-24T08:14:05.597Z,27
2018-08-24T08:14:55.100Z,27.1
2018-08-24T08:15:45.214Z,27.1
2018-08-24T08:16:35.517Z,27
2018-08-24T08:17:25.365Z,26.9
2018-08-24T08:18:17.076Z,26.9
2018-08-24T08:19:04.853Z,26.9
2018-08-24T08:19:55.895Z,26.9
2018-08-24T08:20:45.521Z,26.9
2018-08-24T08:21:35.004Z,26.9
2018-08-24T08:22:25.435Z,26.9
2018-08-24T08:23:16.372Z,26.9
2018-08-24T08:24:05.222Z,27
2018-08-24T08:24:57.551Z,27
2018-08-24T08:25:45.933Z,27
2018-08-24T08:26:36.275Z,26.9
2018-08-24T08:27:26.377Z,26.9
2018-08-24T08:28:16.703Z,26.9
2018-08-24T08:29:06.430Z,27
2018-08-24T08:29:56.252Z,27.1
2018-08-24T08:30:45.570Z,27.1
2018-08-24T08:31:35.842Z,27.1
2018-08-24T08:32:26.731Z,27.1
2018-08-24T08:33:16.772Z,27.1
2018-08-24T08:34:07.131Z,27.1
2018-08-24T08:34:57.228Z,27
2018-08-24T08:35:47.488Z,27
2018-08-24T08:36:36.988Z,26.9
2018-08-24T08:37:27.097Z,27
2018-08-24T08:38:16.928Z,27.1
2018-08-24T08:39:07.331Z,27.1
2018-08-24T08:39:57.056Z,27.1
2018-08-24T08:40:46.835Z,27.1
2018-08-24T08:41:37.136Z,27.1
2018-08-24T08:42:27.496Z,27.1
2018-08-24T08:43:17.328Z,27.1
2018-08-24T08:44:07.050Z,27.1
2018-08-24T08:44:57.215Z,27.1
2018-08-24T08:45:47.502Z,27.1
2018-08-24T08:46:37.601Z,27.2
2018-08-24T08:47:28.175Z,27.2
2018-08-24T08:48:17.655Z,27.2
2018-08-24T08:49:08.329Z,27.2
2018-08-24T08:49:57.831Z,27.2
2018-08-24T08:50:48.754Z,27.2
2018-08-24T08:51:38.226Z,27.2
2018-08-24T08:52:27.229Z,27.3
2018-08-24T08:53:17.988Z,27.3
2018-08-24T08:54:08.203Z,27.3
2018-08-24T08:54:58.060Z,27.3
2018-08-24T08:55:46.985Z,27.3
2018-08-24T08:56:37.853Z,27.3
2018-08-24T08:57:28.219Z,27.3
2018-08-24T08:58:19.016Z,27.3
2018-08-24T09:15:00.858Z,26.9
2018-08-24T09:15:50.186Z,26.9
2018-08-24T09:16:39.366Z,26.9
2018-08-24T09:17:29.439Z,27
2018-08-24T09:18:19.687Z,27
2018-08-24T09:19:09.886Z,27
2018-08-24T09:20:00.650Z,27
2018-08-24T09:20:49.978Z,27
2018-08-24T09:21:40.301Z,27.1
2018-08-24T09:22:30.109Z,27.1
2018-08-24T09:23:19.000Z,27.1
2018-08-24T09:24:10.256Z,27.2
2018-08-24T09:24:59.961Z,27.2
2018-08-24T09:25:51.925Z,27.3
2018-08-24T09:26:40.700Z,27.3
2018-08-24T09:27:30.357Z,27.3
2018-08-24T09:28:20.875Z,27.3
2018-08-24T09:29:11.230Z,27.4
2018-08-24T09:29:59.914Z,27.4
2018-08-24T09:30:50.751Z,27.4
2018-08-24T09:31:40.890Z,27.4
2018-08-24T09:32:33.912Z,27.4
2018-08-24T09:33:20.732Z,27.4
2018-08-24T09:34:09.974Z,27.4
2018-08-24T09:35:00.993Z,27.3
2018-08-24T09:35:49.599Z,27.3
2018-08-24T09:36:40.959Z,27.3
2018-08-24T09:37:31.038Z,27.4
2018-08-24T09:38:21.406Z,27.4
2018-08-24T09:39:10.594Z,27.3
2018-08-24T09:40:00.796Z,27.3
2018-08-24T09:40:51.295Z,27.3
2018-08-24T09:41:41.826Z,27.3
2018-08-24T09:42:31.697Z,27.3
2018-08-24T09:43:21.769Z,27.3
2018-08-24T09:44:12.593Z,27.3
2018-08-24T09:45:01.982Z,27.3
2018-08-24T09:45:51.659Z,27.4
2018-08-24T09:46:41.085Z,27.4
2018-08-24T09:47:30.812Z,27.4
2018-08-24T09:48:22.492Z,27.4
2018-08-24T09:49:15.011Z,27.4
2018-08-24T09:50:02.042Z,27.4
2018-08-24T09:50:52.216Z,27.3
2018-08-24T09:51:42.923Z,27.4
2018-08-24T09:52:33.410Z,27.4
2018-08-24T09:53:22.613Z,27.4
2018-08-24T09:54:12.272Z,27.4
2018-08-24T09:55:02.138Z,27.4
2018-08-24T09:55:52.999Z,27.4
2018-08-24T09:56:42.697Z,27.4
2018-08-24T09:57:32.843Z,27.4
2018-08-24T09:58:23.423Z,27.4
2018-08-24T09:59:13.483Z,27.4
2018-08-24T10:00:03.585Z,27.4
2018-08-24T10:00:53.204Z,27.4
2018-08-24T10:01:43.493Z,27.4
2018-08-24T10:02:33.539Z,27.5
2018-08-24T10:03:23.014Z,27.5
2018-08-24T10:04:14.145Z,27.6
2018-08-24T10:05:03.387Z,27.6
2018-08-24T10:05:53.464Z,27.6
2018-08-24T10:06:44.829Z,27.6
2018-08-24T10:07:33.966Z,27.6
2018-08-24T10:08:23.755Z,27.6
2018-08-24T10:09:13.226Z,27.6
2018-08-24T10:10:04.619Z,27.6
2018-08-24T10:10:54.113Z,27.6
2018-08-24T10:11:44.328Z,27.6
2018-08-24T10:12:35.023Z,27.6
2018-08-24T10:13:25.978Z,27.6
2018-08-24T10:14:13.932Z,27.6
2018-08-24T10:15:03.478Z,27.6
2018-08-24T10:15:54.800Z,27.6
2018-08-24T10:16:45.166Z,27.6
2018-08-24T10:17:34.390Z,27.6
2018-08-24T10:18:24.436Z,27.6
2018-08-24T10:19:14.765Z,27.6
2018-08-24T10:20:04.663Z,27.6
2018-08-24T10:20:55.020Z,27.6
2018-08-24T10:21:44.489Z,27.6
2018-08-24T10:22:34.212Z,27.6
2018-08-24T10:23:25.372Z,27.6
2018-08-24T10:24:15.182Z,27.6
2018-08-24T10:25:05.751Z,27.6
2018-08-24T10:25:55.849Z,27.6
2018-08-24T10:26:45.497Z,27.6
2018-08-24T10:27:35.257Z,27.6
2018-08-24T10:28:26.086Z,27.6
2018-08-24T10:29:17.017Z,27.6
2018-08-24T10:30:05.924Z,27.6
2018-08-24T10:30:55.212Z,27.6
2018-08-24T10:31:45.037Z,27.6
2018-08-24T10:32:35.388Z,27.6
2018-08-24T10:33:26.198Z,27.6
2018-08-24T10:34:16.064Z,27.6
2018-08-24T10:35:06.143Z,27.6
2018-08-24T10:35:55.593Z,27.6
2018-08-24T10:36:46.700Z,27.6
2018-08-24T10:37:35.744Z,27.6
2018-08-24T10:38:26.373Z,27.6
2018-08-24T10:39:17.493Z,27.6
2018-08-24T10:40:05.933Z,27.6
2018-08-24T10:40:56.369Z,27.6
2018-08-24T10:41:46.835Z,27.6
2018-08-24T10:42:36.384Z,27.6
2018-08-24T10:43:25.674Z,27.6
2018-08-24T10:44:16.540Z,27.6
2018-08-24T10:45:06.661Z,27.6
2018-08-24T10:45:57.243Z,27.6
2018-08-24T10:46:46.113Z,27.6
2018-08-24T10:47:36.415Z,27.6
2018-08-24T10:48:27.177Z,27.6
2018-08-24T10:49:17.075Z,27.6
2018-08-24T10:50:07.258Z,27.6
2018-08-24T10:50:57.333Z,27.6
2018-08-24T10:51:46.566Z,27.6
2018-08-24T10:52:37.147Z,27.6
2018-08-24T10:53:27.546Z,27.6
2018-08-24T10:54:17.539Z,27.7
2018-08-24T10:55:08.978Z,27.7
2018-08-24T10:55:58.946Z,27.7
2018-08-24T10:56:46.943Z,27.7
2018-08-24T10:57:37.117Z,27.7
2018-08-24T10:58:27.230Z,27.7
2018-08-24T10:59:17.967Z,27.7
2018-08-24T11:00:08.062Z,27.8
2018-08-24T11:00:57.530Z,27.7
2018-08-24T11:01:47.676Z,27.7
2018-08-24T11:02:38.226Z,27.7
2018-08-24T11:03:28.031Z,27.7
2018-08-24T11:04:17.829Z,27.7
2018-08-24T11:05:07.343Z,27.7
2018-08-24T11:05:57.788Z,27.7
2018-08-24T11:06:48.549Z,27.7
2018-08-24T11:07:39.784Z,27.8
2018-08-24T11:08:28.562Z,27.7
2018-08-24T11:09:19.004Z,27.7
2018-08-24T11:10:08.260Z,27.7
2018-08-24T11:10:58.350Z,27.7
2018-08-24T11:11:48.790Z,27.8
2018-08-24T11:12:38.199Z,27.8
2018-08-24T11:13:28.567Z,27.8
2018-08-24T11:14:18.058Z,27.7
2018-08-24T11:15:09.253Z,27.8
2018-08-24T11:15:59.045Z,27.8
2018-08-24T11:16:50.640Z,27.8
2018-08-24T11:17:39.434Z,27.8
2018-08-24T11:18:30.038Z,27.8
2018-08-24T11:19:19.710Z,27.8
2018-08-24T11:20:09.384Z,27.8
2018-08-24T11:21:00.026Z,27.8
2018-08-24T11:21:49.880Z,27.8
2018-08-24T11:22:39.888Z,27.8
2018-08-24T11:23:30.357Z,27.8
2018-08-24T11:24:20.052Z,27.8
2018-08-24T11:25:09.988Z,27.8
2018-08-24T11:25:59.249Z,27.8
2018-08-24T11:26:49.899Z,27.8
2018-08-24T11:27:40.401Z,27.8
2018-08-24T11:28:30.736Z,27.8
2018-08-24T11:29:21.184Z,27.8
2018-08-24T11:30:09.878Z,27.8
2018-08-24T11:30:59.293Z,27.8
2018-08-24T11:31:49.948Z,27.8
2018-08-24T11:32:39.983Z,27.8
2018-08-24T11:33:30.241Z,27.8
2018-08-24T11:34:21.046Z,27.8
2018-08-24T11:35:11.073Z,27.8
2018-08-24T11:36:02.918Z,27.8
2018-08-24T11:36:50.858Z,27.8
2018-08-24T11:37:40.619Z,27.8
2018-08-24T11:42:41.655Z,27.8
2018-08-24T11:43:30.827Z,27.8
2018-08-24T11:44:21.774Z,27.8
2018-08-24T11:45:11.037Z,27.8
2018-08-24T11:46:01.350Z,27.8
2018-08-24T11:46:51.696Z,27.8
2018-08-24T11:47:41.333Z,27.8
2018-08-24T11:48:32.067Z,27.8
2018-08-24T11:49:21.107Z,27.8
2018-08-24T11:50:11.664Z,27.8
2018-08-24T11:51:01.458Z,27.8
2018-08-24T11:51:52.372Z,27.8
2018-08-24T11:52:41.863Z,27.8
2018-08-24T11:53:33.076Z,27.8
2018-08-24T11:55:12.446Z,27.8
2018-08-24T11:56:02.696Z,27.8
2018-08-24T11:56:52.030Z,27.8
2018-08-24T12:01:02.593Z,27.8
2018-08-24T12:10:13.754Z,27.9
2018-08-24T12:13:33.494Z,27.9
2018-08-24T12:16:03.959Z,27.9
2018-08-24T12:16:54.037Z,27.9
2018-08-24T12:17:44.180Z,27.9
2018-08-24T12:18:35.604Z,27.9
2018-08-24T12:19:24.209Z,27.9
2018-08-24T12:20:13.754Z,27.9